Flight Track Log - Related Links

Times and Time Zones

All times are in EDT time to prevent confusion due to time zone crossing. See the UAE354 flight status page for this flight to view local times or setup timezone preferences in your user account.

Time Position Orientation Groundspeed Altitude Reporting Facility
EDT Latitude Longitude Course Direction KTS MPH feet Rate Location/Type
Tue 07:26:42 PM 25.2460 55.3720 68° East  Level FlightAware ADS-B
Tue 07:29:00 PM 25.1543 55.6627 109° East  Level Estimated
Tue 07:30:00 PM 25.1143 55.7890 109° East  Level Estimated
Tue 07:30:13 PM 25.2450 55.3730 109° East  Level FlightAware ADS-B
Tue 07:32:00 PM 25.1740 55.5985 109° East  Level Estimated
Tue 07:33:00 PM 25.1340 55.7248 109° East  Level Estimated
Tue 07:34:00 PM 25.0939 55.8510 109° East  Level Estimated
Tue 07:34:00 PM 25.2420 55.3810 109° East  Level FlightAware ADS-B
Tue 07:36:00 PM 25.1623 55.6338 109° East  Level Estimated
Tue 07:37:00 PM 25.1223 55.7601 109° East  Level Estimated
Tue 07:38:00 PM 25.0822 55.8863 109° East  Level Estimated
Tue 07:39:00 PM 25.0420 56.0125 109° East  Level Estimated
Tue 07:40:00 PM 25.0016 56.1385 109° East  Level Estimated
Tue 07:41:00 PM 24.9612 56.2645 109° East  Level Estimated
Tue 07:42:00 PM 25.2550 55.3670 299° West 114 131 600  Level FlightAware ADS-B
Tue 07:42:25 PM 25.2670 55.3450 301° West 177 204 800 585 Climbing FlightAware ADS-B
Tue 07:42:41 PM 25.2730 55.3360 306° West 181 208 1,000 1,333 Climbing FlightAware ADS-B
Tue 07:43:10 PM 25.2890 55.3110 305° West 179 206 1,800 1,444 Climbing FlightAware ADS-B
Tue 07:43:35 PM 25.3010 55.2910 304° West 198 228 2,300 1,592 Climbing FlightAware ADS-B
Tue 07:43:59 PM 25.3130 55.2710 304° West 203 234 3,100 1,472 Climbing FlightAware ADS-B
Tue 07:44:28 PM 25.3300 55.2550 320° Northwest 214 246 3,600 1,932 Climbing FlightAware ADS-B
Tue 07:44:58 PM 25.3730 55.2570 North 236 272 5,000 2,509 Climbing FlightAware ADS-B
Tue 07:45:23 PM 25.4070 55.2600 North 251 289 5,900 1,745 Climbing FlightAware ADS-B
Tue 07:45:53 PM 25.4440 55.2630 North 274 315 6,600 1,333 Climbing FlightAware ADS-B
Tue 07:46:08 PM 25.4610 55.2710 23° Northeast 290 334 6,900 1,600 Climbing FlightAware ADS-B
Tue 07:46:23 PM 25.4760 55.2870 44° Northeast 301 346 7,400 2,000 Climbing FlightAware ADS-B
Tue 07:46:38 PM 25.4850 55.3080 65° Northeast 306 352 7,900 783 Climbing FlightAware ADS-B
Tue 07:47:09 PM 25.4930 55.3440 76° East 305 351 8,000 960 Climbing FlightAware ADS-B
Tue 07:48:18 PM 25.5120 55.4270 76° East 308 354 9,500 957 Climbing FlightAware ADS-B
Tue 07:48:43 PM 25.5200 55.4590 75° East 308 354 9,500  Level FlightAware ADS-B
Tue 07:49:08 PM 25.5280 55.4920 75° East 308 354 9,500  Level FlightAware ADS-B
Tue 07:49:33 PM 25.5360 55.5240 75° East 308 354 9,500 809 Level FlightAware ADS-B
Tue 07:52:00 PM 25.4393 55.8262 109° East  Level Estimated
Tue 07:53:00 PM 25.3996 55.9494 110° East  Level Estimated
Tue 07:54:00 PM 25.3598 56.0725 110° East  Level Estimated
Tue 07:55:00 PM 25.3200 56.1955 110° East  Level Estimated
Tue 07:56:00 PM 25.2800 56.3185 110° East  Level Estimated
Tue 07:57:00 PM 25.2399 56.4414 110° East  Level Estimated
Tue 07:58:00 PM 25.1998 56.5642 110° East  Level Estimated
Tue 07:59:00 PM 25.1595 56.6869 110° East  Level Estimated
Tue 08:00:00 PM 25.1191 56.8095 110° East  Level Estimated
Tue 08:01:00 PM 25.0787 56.9321 110° East  Level Estimated
Tue 08:02:00 PM 25.0381 57.0546 110° East  Level Estimated
Tue 08:03:00 PM 24.9974 57.1769 110° East  Level Estimated
Tue 08:04:00 PM 24.9566 57.2993 110° East  Level Estimated
Tue 08:05:00 PM 24.9158 57.4215 110° East  Level Estimated
Tue 08:06:00 PM 24.8748 57.5436 110° East  Level Estimated
Tue 08:07:00 PM 24.8337 57.6657 110° East  Level Estimated
Tue 08:08:00 PM 24.7925 57.7877 110° East  Level Estimated
Tue 08:09:00 PM 24.7513 57.9096 110° East  Level Estimated
Tue 08:10:00 PM 24.7099 58.0314 110° East  Level Estimated
Tue 08:11:00 PM 24.6684 58.1531 111° Southeast  Level Estimated
Tue 08:12:00 PM 24.6269 58.2748 111° Southeast  Level Estimated
Tue 08:13:00 PM 24.5852 58.3964 111° Southeast  Level Estimated
Tue 08:14:00 PM 24.5434 58.5179 111° Southeast  Level Estimated
Tue 08:15:00 PM 24.5016 58.6393 111° Southeast  Level Estimated
Tue 08:16:00 PM 24.4596 58.7606 111° Southeast  Level Estimated
Tue 08:17:00 PM 24.4176 58.8819 111° Southeast  Level Estimated
Tue 08:18:00 PM 24.3754 59.0031 111° Southeast  Level Estimated
Tue 08:19:00 PM 24.3332 59.1242 111° Southeast  Level Estimated
Tue 08:20:00 PM 24.2908 59.2452 111° Southeast  Level Estimated
Tue 08:21:00 PM 24.2484 59.3661 111° Southeast  Level Estimated
Tue 08:22:00 PM 24.2059 59.4869 111° Southeast  Level Estimated
Tue 08:23:00 PM 24.1632 59.6077 111° Southeast  Level Estimated
Tue 08:23:07 PM 23.8470 60.0350 111° Southeast 489 563 37,000  Level FlightAware ADS-B
Tue 08:23:59 PM 23.8030 60.1330 116° Southeast 489 563 37,000  Level FlightAware ADS-B
Tue 08:24:00 PM 24.1205 59.7284 111° Southeast  Level Estimated
Tue 08:24:33 PM 23.7740 60.1970 116° Southeast 489 563 37,000  Level FlightAware ADS-B
Tue 08:25:23 PM 23.7320 60.2910 116° Southeast 489 563 37,000  Level FlightAware ADS-B
Tue 08:25:59 PM 23.7020 60.3590 116° Southeast 489 563 37,000  Level FlightAware ADS-B
Tue 08:26:47 PM 23.6620 60.4500 116° Southeast 489 563 37,000  Level FlightAware ADS-B
Tue 08:27:23 PM 23.6310 60.5180 116° Southeast 489 563 37,000  Level FlightAware ADS-B
Tue 08:28:11 PM 23.5910 60.6080 116° Southeast 489 563 37,000  Level FlightAware ADS-B
Tue 08:28:47 PM 23.5600 60.6760 116° Southeast 489 563 37,000  Level FlightAware ADS-B
Tue 08:29:33 PM 23.5220 60.7630 115° Southeast 489 563 37,000  Level FlightAware ADS-B
Tue 08:30:09 PM 23.4910 60.8310 116° Southeast 489 563 37,000  Level FlightAware ADS-B
Tue 08:30:58 PM 23.4500 60.9230 116° Southeast 489 563 37,000  Level FlightAware ADS-B
Tue 08:31:34 PM 23.4200 60.9910 116° Southeast 489 563 37,000  Level FlightAware ADS-B
Tue 08:32:14 PM 23.3860 61.0660 116° Southeast 489 563 37,000  Level FlightAware ADS-B
Tue 08:33:00 PM 23.3470 61.1530 116° Southeast 489 563 37,000  Level FlightAware ADS-B
Tue 08:35:00 PM 23.2599 61.3921 112° Southeast  Level Estimated
Tue 08:36:00 PM 23.2163 61.5116 112° Southeast  Level Estimated
Tue 08:37:00 PM 23.1725 61.6310 112° Southeast  Level Estimated
Tue 08:38:00 PM 23.1287 61.7503 112° Southeast  Level Estimated
Tue 08:39:00 PM 23.0847 61.8695 112° Southeast  Level Estimated
Tue 08:40:00 PM 23.0407 61.9886 112° Southeast  Level Estimated
Tue 08:41:00 PM 22.9966 62.1077 112° Southeast  Level Estimated
Tue 08:42:00 PM 22.9524 62.2267 112° Southeast  Level Estimated
Tue 08:43:00 PM 22.9081 62.3456 112° Southeast  Level Estimated
Tue 08:44:00 PM 22.8637 62.4644 112° Southeast  Level Estimated
Tue 08:45:00 PM 22.8192 62.5831 112° Southeast  Level Estimated
Tue 08:46:00 PM 22.7746 62.7018 112° Southeast  Level Estimated
Tue 08:47:00 PM 22.7300 62.8204 112° Southeast  Level Estimated
Tue 08:48:00 PM 22.6852 62.9389 112° Southeast  Level Estimated
Tue 08:49:00 PM 22.6404 63.0574 112° Southeast  Level Estimated
Tue 08:50:00 PM 22.5955 63.1757 112° Southeast  Level Estimated
Tue 08:51:00 PM 22.5505 63.2940 112° Southeast  Level Estimated
Tue 08:52:00 PM 22.5054 63.4122 112° Southeast  Level Estimated
Tue 08:53:00 PM 22.4603 63.5304 112° Southeast  Level Estimated
Tue 08:54:00 PM 22.4150 63.6484 113° Southeast  Level Estimated
Tue 08:55:00 PM 22.3697 63.7664 113° Southeast  Level Estimated
Tue 08:56:00 PM 22.3242 63.8843 113° Southeast  Level Estimated
Tue 08:57:00 PM 22.2787 64.0021 113° Southeast  Level Estimated
Tue 08:58:00 PM 22.2331 64.1199 113° Southeast  Level Estimated
Tue 08:59:00 PM 22.1874 64.2375 113° Southeast  Level Estimated
Tue 09:00:00 PM 22.1417 64.3551 113° Southeast  Level Estimated
Tue 09:01:00 PM 22.0958 64.4727 113° Southeast  Level Estimated
Tue 09:02:00 PM 22.0499 64.5901 113° Southeast  Level Estimated
Tue 09:03:00 PM 22.0039 64.7075 113° Southeast  Level Estimated
Tue 09:04:00 PM 21.9578 64.8248 113° Southeast  Level Estimated
Tue 09:05:00 PM 21.9116 64.9420 113° Southeast  Level Estimated
Tue 09:06:00 PM 21.8653 65.0591 113° Southeast  Level Estimated
Tue 09:07:00 PM 21.8190 65.1762 113° Southeast  Level Estimated
Tue 09:08:00 PM 21.7725 65.2932 113° Southeast  Level Estimated
Tue 09:09:00 PM 21.7260 65.4101 113° Southeast  Level Estimated
Tue 09:10:00 PM 21.6794 65.5269 113° Southeast  Level Estimated
Tue 09:11:00 PM 21.6327 65.6436 113° Southeast  Level Estimated
Tue 09:12:00 PM 21.5860 65.7603 113° Southeast  Level Estimated
Tue 09:13:00 PM 21.5391 65.8769 113° Southeast  Level Estimated
Tue 09:14:00 PM 21.4922 65.9935 113° Southeast  Level Estimated
Tue 09:15:00 PM 21.4452 66.1099 113° Southeast  Level Estimated
Tue 09:16:00 PM 21.3981 66.2263 113° Southeast  Level Estimated
Tue 09:17:00 PM 21.3510 66.3426 114° Southeast  Level Estimated
Tue 09:18:00 PM 21.3037 66.4588 114° Southeast  Level Estimated
Tue 09:19:00 PM 21.2564 66.5750 114° Southeast  Level Estimated
Tue 09:20:00 PM 21.2090 66.6911 114° Southeast  Level Estimated
Tue 09:21:00 PM 21.1615 66.8071 114° Southeast  Level Estimated
Tue 09:22:00 PM 21.1140 66.9230 114° Southeast  Level Estimated
Tue 09:23:00 PM 21.0663 67.0389 114° Southeast  Level Estimated
Tue 09:24:00 PM 21.0186 67.1547 114° Southeast  Level Estimated
Tue 09:25:00 PM 20.9708 67.2704 114° Southeast  Level Estimated
Tue 09:26:00 PM 20.9229 67.3860 114° Southeast  Level Estimated
Tue 09:27:00 PM 20.8750 67.5016 114° Southeast  Level Estimated
Tue 09:28:00 PM 20.8269 67.6171 114° Southeast  Level Estimated
Tue 09:29:00 PM 20.7788 67.7325 114° Southeast  Level Estimated
Tue 09:30:00 PM 20.7306 67.8478 114° Southeast  Level Estimated
Tue 09:31:00 PM 20.6824 67.9631 114° Southeast  Level Estimated
Tue 09:32:00 PM 20.6340 68.0783 114° Southeast  Level Estimated
Tue 09:33:00 PM 20.5856 68.1934 114° Southeast  Level Estimated
Tue 09:34:00 PM 20.5371 68.3084 114° Southeast  Level Estimated
Tue 09:35:00 PM 20.4886 68.4234 114° Southeast  Level Estimated
Tue 09:36:00 PM 20.4399 68.5383 114° Southeast  Level Estimated
Tue 09:37:00 PM 20.3912 68.6532 114° Southeast  Level Estimated
Tue 09:38:00 PM 20.3424 68.7679 114° Southeast  Level Estimated
Tue 09:39:00 PM 20.2935 68.8826 114° Southeast  Level Estimated
Tue 09:40:00 PM 20.2446 68.9972 114° Southeast  Level Estimated
Tue 09:41:00 PM 20.1956 69.1117 114° Southeast  Level Estimated
Tue 09:42:00 PM 20.1465 69.2262 115° Southeast  Level Estimated
Tue 09:43:00 PM 20.0973 69.3406 115° Southeast  Level Estimated
Tue 09:44:00 PM 20.0481 69.4549 115° Southeast  Level Estimated
Tue 09:45:00 PM 19.9988 69.5692 115° Southeast  Level Estimated
Tue 09:46:00 PM 19.9494 69.6834 115° Southeast  Level Estimated
Tue 09:47:00 PM 19.8999 69.7975 115° Southeast  Level Estimated
Tue 09:48:00 PM 19.8504 69.9115 115° Southeast  Level Estimated
Tue 09:49:00 PM 19.8008 70.0255 115° Southeast  Level Estimated
Tue 09:50:00 PM 19.7511 70.1394 115° Southeast  Level Estimated
Tue 09:51:00 PM 19.7014 70.2532 115° Southeast  Level Estimated
Tue 09:52:00 PM 19.6515 70.3670 115° Southeast  Level Estimated
Tue 09:53:00 PM 19.6017 70.4806 115° Southeast  Level Estimated
Tue 09:54:00 PM 19.5517 70.5943 115° Southeast  Level Estimated
Tue 09:55:00 PM 19.5017 70.7078 115° Southeast  Level Estimated
Tue 09:56:00 PM 19.4516 70.8213 115° Southeast  Level Estimated
Tue 09:57:00 PM 19.4014 70.9347 115° Southeast  Level Estimated
Tue 09:58:00 PM 19.3512 71.0480 115° Southeast  Level Estimated
Tue 09:59:00 PM 19.3008 71.1612 115° Southeast  Level Estimated
Tue 10:00:00 PM 19.2505 71.2744 115° Southeast  Level Estimated
Tue 10:01:00 PM 19.2000 71.3876 115° Southeast  Level Estimated
Tue 10:02:00 PM 19.1495 71.5006 115° Southeast  Level Estimated
Tue 10:03:00 PM 19.0989 71.6136 115° Southeast  Level Estimated
Tue 10:04:00 PM 19.0482 71.7265 115° Southeast  Level Estimated
Tue 10:05:00 PM 18.9975 71.8393 115° Southeast  Level Estimated
Tue 10:06:00 PM 18.9467 71.9521 115° Southeast  Level Estimated
Tue 10:07:00 PM 18.8958 72.0648 115° Southeast  Level Estimated
Tue 10:08:00 PM 18.8449 72.1775 116° Southeast  Level Estimated
Tue 10:09:00 PM 18.7939 72.2900 116° Southeast  Level Estimated
Tue 10:10:00 PM 18.7428 72.4025 116° Southeast  Level Estimated
Tue 10:11:00 PM 18.6917 72.5150 116° Southeast  Level Estimated
Tue 10:12:00 PM 18.6405 72.6274 116° Southeast  Level Estimated
Tue 10:13:00 PM 18.5892 72.7397 116° Southeast  Level Estimated
Tue 10:14:00 PM 18.5379 72.8519 116° Southeast  Level Estimated
Tue 10:15:00 PM 18.4865 72.9641 116° Southeast  Level Estimated
Tue 10:16:00 PM 18.4350 73.0761 116° Southeast  Level Estimated
Tue 10:17:00 PM 18.3835 73.1882 116° Southeast  Level Estimated
Tue 10:18:00 PM 18.3319 73.3001 116° Southeast  Level Estimated
Tue 10:19:00 PM 18.2802 73.4120 116° Southeast  Level Estimated
Tue 10:20:00 PM 18.2285 73.5239 116° Southeast  Level Estimated
Tue 10:21:00 PM 18.1767 73.6356 116° Southeast  Level Estimated
Tue 10:22:00 PM 18.1248 73.7473 116° Southeast  Level Estimated
Tue 10:23:00 PM 18.0729 73.8590 116° Southeast  Level Estimated
Tue 10:24:00 PM 18.0209 73.9705 116° Southeast  Level Estimated
Tue 10:25:00 PM 17.9689 74.0820 116° Southeast  Level Estimated
Tue 10:26:00 PM 17.9167 74.1935 116° Southeast  Level Estimated
Tue 10:27:00 PM 17.8646 74.3048 116° Southeast  Level Estimated
Tue 10:28:00 PM 17.8123 74.4161 116° Southeast  Level Estimated
Tue 10:29:00 PM 17.7600 74.5274 116° Southeast  Level Estimated
Tue 10:30:00 PM 17.7076 74.6385 116° Southeast  Level Estimated
Tue 10:31:00 PM 17.6552 74.7496 116° Southeast  Level Estimated
Tue 10:32:00 PM 17.6027 74.8607 116° Southeast  Level Estimated
Tue 10:33:00 PM 17.5502 74.9717 116° Southeast  Level Estimated
Tue 10:34:00 PM 17.4976 75.0826 116° Southeast  Level Estimated
Tue 10:35:00 PM 17.4449 75.1934 116° Southeast  Level Estimated
Tue 10:36:00 PM 17.3921 75.3042 116° Southeast  Level Estimated
Tue 10:37:00 PM 17.3393 75.4149 117° Southeast  Level Estimated
Tue 10:38:00 PM 17.2865 75.5256 117° Southeast  Level Estimated
Tue 10:39:00 PM 17.2336 75.6362 117° Southeast  Level Estimated
Tue 10:40:00 PM 17.1806 75.7467 117° Southeast  Level Estimated
Tue 10:41:00 PM 17.1275 75.8572 117° Southeast  Level Estimated
Tue 10:42:00 PM 17.0744 75.9676 117° Southeast  Level Estimated
Tue 10:42:42 PM 15.5860 77.6250 117° Southeast 470 541 37,000  Level FlightAware ADS-B
Tue 10:43:00 PM 17.0213 76.0779 117° Southeast  Level Estimated
Tue 10:43:19 PM 15.5500 77.7010 116° Southeast 468 539 37,000  Level FlightAware ADS-B
Tue 10:43:59 PM 15.5180 77.7690 116° Southeast 468 539 37,000  Level FlightAware ADS-B
Tue 10:44:43 PM 15.4790 77.8500 117° Southeast 468 539 37,000  Level FlightAware ADS-B
Tue 10:45:29 PM 15.4420 77.9290 116° Southeast 468 539 37,000  Level FlightAware ADS-B
Tue 10:46:05 PM 15.4130 77.9910 116° Southeast 468 539 37,000  Level FlightAware ADS-B
Tue 10:46:52 PM 15.3440 78.1320 117° Southeast 470 541 37,000  Level FlightAware ADS-B
Tue 10:47:37 PM 15.3000 78.2200 117° Southeast 470 541 37,000  Level FlightAware ADS-B
Tue 10:48:17 PM 15.2620 78.2980 117° Southeast 470 541 37,000  Level FlightAware ADS-B
Tue 10:48:58 PM 15.2210 78.3820 117° Southeast 470 541 37,000  Level FlightAware ADS-B
Tue 10:49:48 PM 15.1760 78.4750 117° Southeast 470 541 37,000  Level FlightAware ADS-B
Tue 10:50:43 PM 15.1320 78.5700 116° Southeast 470 541 37,000  Level FlightAware ADS-B
Tue 10:51:31 PM 15.0930 78.6530 116° Southeast 470 541 37,000  Level FlightAware ADS-B
Tue 10:52:07 PM 15.0640 78.7140 116° Southeast 470 541 37,000  Level FlightAware ADS-B
Tue 10:52:55 PM 15.0250 78.7970 116° Southeast 470 541 37,000  Level FlightAware ADS-B
Tue 10:53:32 PM 14.9950 78.8610 116° Southeast 470 541 37,000  Level FlightAware ADS-B
Tue 10:54:21 PM 14.9550 78.9450 116° Southeast 470 541 37,000  Level FlightAware ADS-B
Tue 10:55:04 PM 14.8600 79.1150 120° Southeast 470 541 37,000  Level FlightAware ADS-B
Tue 10:55:40 PM 14.8310 79.1760 116° Southeast 470 541 37,000  Level FlightAware ADS-B
Tue 10:56:30 PM 14.7900 79.2620 116° Southeast 470 541 37,000  Level FlightAware ADS-B
Tue 10:57:02 PM 14.7490 79.3390 119° Southeast 466 536 37,000  Level FlightAware ADS-B
Tue 10:57:46 PM 14.7010 79.4360 117° Southeast 466 536 37,000  Level FlightAware ADS-B
Tue 10:58:27 PM 14.6670 79.5050 117° Southeast 466 536 37,000  Level FlightAware ADS-B
Tue 10:59:12 PM 14.6230 79.5940 117° Southeast 469 540 37,000  Level FlightAware ADS-B
Tue 11:00:12 PM 14.5740 79.6920 117° Southeast 470 541 37,000  Level FlightAware ADS-B
Tue 11:00:54 PM 14.5390 79.7620 117° Southeast 470 541 37,000  Level FlightAware ADS-B
Tue 11:01:29 PM 14.4880 79.8650 117° Southeast 468 539 37,000  Level FlightAware ADS-B
Tue 11:02:14 PM 14.4350 79.9700 118° Southeast 467 537 37,000  Level FlightAware ADS-B
Tue 11:03:27 PM 14.3730 80.0950 117° Southeast 467 537 37,000  Level FlightAware ADS-B
Tue 11:04:03 PM 14.3430 80.1560 117° Southeast 467 537 37,000  Level FlightAware ADS-B
Tue 11:04:53 PM 14.3010 80.2410 117° Southeast 467 537 37,000  Level FlightAware ADS-B
Tue 11:05:31 PM 14.2690 80.3050 117° Southeast 467 537 37,000  Level FlightAware ADS-B
Tue 11:06:31 PM 14.2020 80.4350 118° Southeast 472 543 37,000  Level FlightAware ADS-B
Tue 11:07:07 PM 14.1720 80.4960 117° Southeast 472 543 37,000  Level FlightAware ADS-B
Tue 11:08:09 PM 14.1190 80.6020 117° Southeast 472 543 37,000  Level FlightAware ADS-B
Tue 11:08:45 PM 14.0890 80.6630 117° Southeast 472 543 37,000  Level FlightAware ADS-B
Tue 11:09:31 PM 14.0500 80.7420 117° Southeast 472 543 37,000  Level FlightAware ADS-B
Tue 11:10:07 PM 14.0200 80.8030 117° Southeast 472 543 37,000  Level FlightAware ADS-B
Tue 11:10:56 PM 13.9790 80.8870 117° Southeast 472 543 37,000  Level FlightAware ADS-B
Tue 11:11:40 PM 13.9420 80.9620 117° Southeast 472 543 37,000  Level FlightAware ADS-B
Tue 11:12:36 PM 13.8260 81.1950 117° Southeast 472 543 37,000  Level FlightAware ADS-B
Tue 11:13:11 PM 13.7920 81.2620 118° Southeast 472 543 37,000  Level FlightAware ADS-B
Tue 11:13:58 PM 13.7400 81.3690 117° Southeast 472 543 37,000  Level FlightAware ADS-B
Tue 11:14:32 PM 13.7060 81.4390 117° Southeast 472 543 37,000  Level FlightAware ADS-B
Tue 11:15:20 PM 13.6660 81.5210 117° Southeast 471 542 37,000  Level FlightAware ADS-B
Tue 11:16:03 PM 13.6230 81.6110 116° Southeast 470 541 37,000  Level FlightAware ADS-B
Tue 11:16:39 PM 13.5940 81.6720 116° Southeast 470 541 37,000  Level FlightAware ADS-B
Tue 11:17:27 PM 13.5550 81.7540 116° Southeast 470 541 37,000  Level FlightAware ADS-B
Tue 11:18:03 PM 13.5260 81.8160 116° Southeast 470 541 37,000  Level FlightAware ADS-B
Tue 11:18:51 PM 13.4870 81.8980 116° Southeast 470 541 37,000  Level FlightAware ADS-B
Tue 11:19:27 PM 13.4580 81.9590 116° Southeast 470 541 37,000  Level FlightAware ADS-B
Tue 11:20:27 PM 13.3580 82.1480 119° Southeast 470 541 37,000  Level FlightAware ADS-B
Tue 11:21:05 PM 13.3220 82.2220 117° Southeast 470 541 37,000  Level FlightAware ADS-B
Tue 11:21:45 PM 13.2850 82.2980 117° Southeast 469 540 37,000  Level FlightAware ADS-B
Tue 11:22:33 PM 13.2390 82.3910 117° Southeast 467 537 37,000  Level FlightAware ADS-B
Tue 11:23:33 PM 13.1880 82.4970 116° Southeast 466 536 37,000  Level FlightAware ADS-B
Tue 11:24:09 PM 13.1590 82.5570 116° Southeast 466 536 37,000  Level FlightAware ADS-B
Tue 11:24:57 PM 13.1210 82.6390 115° Southeast 466 536 37,000  Level FlightAware ADS-B
Tue 11:25:36 PM 13.0890 82.7050 116° Southeast 466 536 37,000  Level FlightAware ADS-B
Tue 11:26:13 PM 13.0600 82.7670 116° Southeast 466 536 37,000  Level FlightAware ADS-B
Tue 11:27:01 PM 13.0210 82.8480 116° Southeast 466 536 37,000  Level FlightAware ADS-B
Tue 11:27:35 PM 12.9940 82.9060 116° Southeast 466 536 37,000  Level FlightAware ADS-B
Tue 11:28:24 PM 12.9540 82.9890 116° Southeast 466 536 37,000  Level FlightAware ADS-B
Tue 11:29:00 PM 12.9250 83.0490 116° Southeast 466 536 37,000  Level FlightAware ADS-B
Tue 11:29:48 PM 12.8870 83.1310 115° Southeast 466 536 37,000  Level FlightAware ADS-B
Tue 11:30:40 PM 12.8450 83.2180 116° Southeast 466 536 37,000  Level FlightAware ADS-B
Tue 11:31:28 PM 12.8060 83.3000 116° Southeast 466 536 37,000  Level FlightAware ADS-B
Tue 11:32:05 PM 12.7770 83.3620 116° Southeast 466 536 37,000  Level FlightAware ADS-B
Tue 11:32:53 PM 12.7380 83.4430 116° Southeast 466 536 37,000  Level FlightAware ADS-B
Tue 11:35:00 PM 12.6221 83.6701 118° Southeast  Level Estimated
Tue 11:36:00 PM 12.5673 83.7773 118° Southeast  Level Estimated
Tue 11:37:00 PM 12.5124 83.8845 118° Southeast  Level Estimated
Tue 11:38:00 PM 12.4575 83.9916 118° Southeast  Level Estimated
Tue 11:39:00 PM 12.4025 84.0987 118° Southeast  Level Estimated
Tue 11:40:00 PM 12.3476 84.2057 118° Southeast  Level Estimated
Tue 11:41:00 PM 12.2925 84.3127 118° Southeast  Level Estimated
Tue 11:42:00 PM 12.2374 84.4197 118° Southeast  Level Estimated
Tue 11:43:00 PM 12.1823 84.5266 118° Southeast  Level Estimated
Tue 11:44:00 PM 12.1272 84.6334 118° Southeast  Level Estimated
Tue 11:45:00 PM 12.0720 84.7402 118° Southeast  Level Estimated
Tue 11:46:00 PM 12.0167 84.8470 118° Southeast  Level Estimated
Tue 11:47:00 PM 11.9614 84.9538 118° Southeast  Level Estimated
Tue 11:48:00 PM 11.9061 85.0604 118° Southeast  Level Estimated
Tue 11:49:00 PM 11.8508 85.1671 118° Southeast  Level Estimated
Tue 11:50:00 PM 11.7954 85.2737 118° Southeast  Level Estimated
Tue 11:51:00 PM 11.7399 85.3802 118° Southeast  Level Estimated
Tue 11:52:00 PM 11.6845 85.4867 118° Southeast  Level Estimated
Tue 11:53:00 PM 11.6289 85.5932 118° Southeast  Level Estimated
Tue 11:54:00 PM 11.5734 85.6996 118° Southeast  Level Estimated
Tue 11:55:00 PM 11.5178 85.8060 118° Southeast  Level Estimated
Tue 11:56:00 PM 11.4621 85.9123 118° Southeast  Level Estimated
Tue 11:57:00 PM 11.4065 86.0186 118° Southeast  Level Estimated
Tue 11:58:00 PM 11.3507 86.1249 118° Southeast  Level Estimated
Tue 11:59:00 PM 11.2950 86.2311 118° Southeast  Level Estimated
Wed 12:00:00 AM 11.2392 86.3373 118° Southeast  Level Estimated
Wed 12:01:00 AM 11.1834 86.4434 118° Southeast  Level Estimated
Wed 12:02:00 AM 11.1275 86.5495 118° Southeast  Level Estimated
Wed 12:03:00 AM 11.0716 86.6555 118° Southeast  Level Estimated
Wed 12:04:00 AM 11.0157 86.7616 118° Southeast  Level Estimated
Wed 12:05:00 AM 10.9597 86.8675 118° Southeast  Level Estimated
Wed 12:06:00 AM 10.9037 86.9735 118° Southeast  Level Estimated
Wed 12:07:00 AM 10.8476 87.0794 118° Southeast  Level Estimated
Wed 12:08:00 AM 10.7916 87.1852 118° Southeast  Level Estimated
Wed 12:09:00 AM 10.7354 87.2910 118° Southeast  Level Estimated
Wed 12:10:00 AM 10.6793 87.3968 118° Southeast  Level Estimated
Wed 12:11:00 AM 10.6231 87.5025 118° Southeast  Level Estimated
Wed 12:12:00 AM 10.5669 87.6082 118° Southeast  Level Estimated
Wed 12:13:00 AM 10.5106 87.7139 118° Southeast  Level Estimated
Wed 12:14:00 AM 10.4543 87.8195 118° Southeast  Level Estimated
Wed 12:15:00 AM 10.3980 87.9250 118° Southeast  Level Estimated
Wed 12:16:00 AM 10.3416 88.0306 118° Southeast  Level Estimated
Wed 12:17:00 AM 10.2852 88.1361 119° Southeast  Level Estimated
Wed 12:18:00 AM 10.2288 88.2415 119° Southeast  Level Estimated
Wed 12:19:00 AM 10.1723 88.3470 119° Southeast  Level Estimated
Wed 12:20:00 AM 10.1158 88.4524 119° Southeast  Level Estimated
Wed 12:21:00 AM 10.0593 88.5577 119° Southeast  Level Estimated
Wed 12:22:00 AM 10.0027 88.6630 119° Southeast  Level Estimated
Wed 12:23:00 AM 9.9461 88.7683 119° Southeast  Level Estimated
Wed 12:24:00 AM 9.8895 88.8736 119° Southeast  Level Estimated
Wed 12:25:00 AM 9.8328 88.9788 119° Southeast  Level Estimated
Wed 12:26:00 AM 9.7761 89.0839 119° Southeast  Level Estimated
Wed 12:27:00 AM 9.7194 89.1891 119° Southeast  Level Estimated
Wed 12:28:00 AM 9.6626 89.2942 119° Southeast  Level Estimated
Wed 12:29:00 AM 9.6058 89.3992 119° Southeast  Level Estimated
Wed 12:30:00 AM 9.5490 89.5043 119° Southeast  Level Estimated
Wed 12:31:00 AM 9.4921 89.6093 119° Southeast  Level Estimated
Wed 12:32:00 AM 9.4353 89.7142 119° Southeast  Level Estimated
Wed 12:33:00 AM 9.3783 89.8191 119° Southeast  Level Estimated
Wed 12:34:00 AM 9.3214 89.9240 119° Southeast  Level Estimated
Wed 12:35:00 AM 9.2644 90.0289 119° Southeast  Level Estimated
Wed 12:36:00 AM 9.2074 90.1337 119° Southeast  Level Estimated
Wed 12:37:00 AM 9.1503 90.2385 119° Southeast  Level Estimated
Wed 12:38:00 AM 9.0933 90.3432 119° Southeast  Level Estimated
Wed 12:39:00 AM 9.0362 90.4480 119° Southeast  Level Estimated
Wed 12:40:00 AM 8.9790 90.5526 119° Southeast  Level Estimated
Wed 12:41:00 AM 8.9219 90.6573 119° Southeast  Level Estimated
Wed 12:42:00 AM 8.8647 90.7619 119° Southeast  Level Estimated
Wed 12:43:00 AM 8.8075 90.8665 119° Southeast  Level Estimated
Wed 12:44:00 AM 8.7502 90.9711 119° Southeast  Level Estimated
Wed 12:45:00 AM 8.6930 91.0756 119° Southeast  Level Estimated
Wed 12:46:00 AM 8.6356 91.1801 119° Southeast  Level Estimated
Wed 12:47:00 AM 8.5783 91.2845 119° Southeast  Level Estimated
Wed 12:48:00 AM 8.5209 91.3890 119° Southeast  Level Estimated
Wed 12:49:00 AM 8.4635 91.4934 119° Southeast  Level Estimated
Wed 12:50:00 AM 8.4061 91.5977 119° Southeast  Level Estimated
Wed 12:51:00 AM 8.3487 91.7021 119° Southeast  Level Estimated
Wed 12:52:00 AM 8.2912 91.8064 119° Southeast  Level Estimated
Wed 12:53:00 AM 8.2337 91.9106 119° Southeast  Level Estimated
Wed 12:54:00 AM 8.1762 92.0149 119° Southeast  Level Estimated
Wed 12:55:00 AM 8.1186 92.1191 119° Southeast  Level Estimated
Wed 12:56:00 AM 8.0611 92.2233 119° Southeast  Level Estimated
Wed 12:57:00 AM 8.0034 92.3274 119° Southeast  Level Estimated
Wed 12:58:00 AM 7.9458 92.4315 119° Southeast  Level Estimated
Wed 12:59:00 AM 7.8882 92.5356 119° Southeast  Level Estimated
Wed 01:00:00 AM 7.8305 92.6397 119° Southeast  Level Estimated
Wed 01:01:00 AM 7.7728 92.7438 119° Southeast  Level Estimated
Wed 01:02:00 AM 7.7150 92.8478 119° Southeast  Level Estimated
Wed 01:03:00 AM 7.6573 92.9517 119° Southeast  Level Estimated
Wed 01:04:00 AM 7.5995 93.0557 119° Southeast  Level Estimated
Wed 01:05:00 AM 7.5417 93.1596 119° Southeast  Level Estimated
Wed 01:06:00 AM 7.4838 93.2635 119° Southeast  Level Estimated
Wed 01:07:00 AM 7.4260 93.3674 119° Southeast  Level Estimated
Wed 01:08:00 AM 7.3681 93.4712 119° Southeast  Level Estimated
Wed 01:09:00 AM 7.3102 93.5750 119° Southeast  Level Estimated
Wed 01:10:00 AM 7.2523 93.6788 119° Southeast  Level Estimated
Wed 01:11:00 AM 7.1943 93.7826 119° Southeast  Level Estimated
Wed 01:12:00 AM 7.1364 93.8861 119° Southeast  Level Estimated
Wed 01:13:00 AM 7.0786 93.9896 119° Southeast  Level Estimated
Wed 01:14:00 AM 7.0207 94.0930 119° Southeast  Level Estimated
Wed 01:15:00 AM 6.9628 94.1964 119° Southeast  Level Estimated
Wed 01:16:00 AM 6.9048 94.2998 119° Southeast  Level Estimated
Wed 01:17:00 AM 6.8469 94.4032 119° Southeast  Level Estimated
Wed 01:18:00 AM 6.7889 94.5066 119° Southeast  Level Estimated
Wed 01:19:00 AM 6.7309 94.6099 119° Southeast  Level Estimated
Wed 01:20:00 AM 6.6729 94.7132 119° Southeast  Level Estimated
Wed 01:21:00 AM 6.6148 94.8164 119° Southeast  Level Estimated
Wed 01:22:00 AM 6.5567 94.9197 120° Southeast  Level Estimated
Wed 01:23:00 AM 6.4986 95.0229 120° Southeast  Level Estimated
Wed 01:24:00 AM 6.4405 95.1261 120° Southeast  Level Estimated
Wed 01:25:00 AM 6.3824 95.2293 120° Southeast  Level Estimated
Wed 01:26:00 AM 6.3243 95.3325 120° Southeast  Level Estimated
Wed 01:27:00 AM 6.2661 95.4356 120° Southeast  Level Estimated
Wed 01:28:00 AM 6.2079 95.5387 120° Southeast  Level Estimated
Wed 01:29:00 AM 6.1497 95.6418 120° Southeast  Level Estimated
Wed 01:30:00 AM 6.0917 95.7444 120° Southeast  Level Estimated
Wed 01:31:00 AM 6.0337 95.8470 120° Southeast  Level Estimated
Wed 01:32:00 AM 5.9757 95.9495 120° Southeast  Level Estimated
Wed 01:33:00 AM 5.9177 96.0521 120° Southeast  Level Estimated
Wed 01:34:00 AM 5.8596 96.1546 120° Southeast  Level Estimated
Wed 01:35:00 AM 5.8016 96.2571 120° Southeast  Level Estimated
Wed 01:36:00 AM 5.7435 96.3595 120° Southeast  Level Estimated
Wed 01:37:00 AM 5.6854 96.4620 120° Southeast  Level Estimated
Wed 01:37:32 AM 5.6370 98.2170 120° Southeast 482 555 37,000  Level FlightAware ADS-B
Wed 01:38:00 AM 5.6273 96.5644 120° Southeast  Level Estimated
Wed 01:38:42 AM 5.5840 98.2790 131° Southeast 472 543 37,000  Level FlightAware ADS-B
Wed 01:39:32 AM 5.4600 98.4210 131° Southeast 460 529 37,000  Level FlightAware ADS-B
Wed 01:41:13 AM 5.3380 98.5660 130° Southeast 461 531 37,000  Level FlightAware ADS-B
Wed 01:41:57 AM 5.2590 98.6530 132° Southeast 463 533 37,000  Level FlightAware ADS-B
Wed 01:42:42 AM 5.1940 98.7290 131° Southeast 466 536 37,000  Level FlightAware ADS-B
Wed 01:43:22 AM 5.1410 98.7910 131° Southeast 469 540 37,000  Level FlightAware ADS-B
Wed 01:44:07 AM 5.0750 98.8660 131° Southeast 470 541 37,000  Level FlightAware ADS-B
Wed 01:44:47 AM 5.0150 98.9350 131° Southeast 469 540 37,000  Level FlightAware ADS-B
Wed 01:45:27 AM 4.9590 99.0000 131° Southeast 472 543 37,000  Level FlightAware ADS-B
Wed 01:46:12 AM 4.8950 99.0740 131° Southeast 476 548 37,000  Level FlightAware ADS-B
Wed 01:46:52 AM 4.8350 99.1420 132° Southeast 477 549 37,000  Level FlightAware ADS-B
Wed 01:47:37 AM 4.7700 99.2180 131° Southeast 477 549 37,000  Level FlightAware ADS-B
Wed 01:48:18 AM 4.7160 99.2810 131° Southeast 476 548 37,000  Level FlightAware ADS-B
Wed 01:49:00 AM 4.6490 99.3550 132° Southeast 474 545 37,000  Level FlightAware ADS-B
Wed 01:50:06 AM 4.5630 99.4510 132° Southeast 474 545 37,000  Level FlightAware ADS-B
Wed 01:50:49 AM 4.5090 99.5100 133° Southeast 474 545 37,000  Level FlightAware ADS-B
Wed 01:51:31 AM 4.4370 99.5890 132° Southeast 473 544 37,000  Level FlightAware ADS-B
Wed 01:52:10 AM 4.3740 99.6580 132° Southeast 471 542 37,000  Level FlightAware ADS-B
Wed 01:52:55 AM 4.3020 99.7380 132° Southeast 473 544 37,000  Level FlightAware ADS-B
Wed 01:53:37 AM 4.2450 99.8010 132° Southeast 473 544 37,000  Level FlightAware ADS-B
Wed 01:54:20 AM 4.1770 99.8750 133° Southeast 470 541 37,000  Level FlightAware ADS-B
Wed 01:55:15 AM 4.1170 99.9420 132° Southeast 468 539 37,000  Level FlightAware ADS-B
Wed 01:56:28 AM 4.0220 100.0480 132° Southeast 468 539 37,000  Level FlightAware ADS-B
Wed 01:57:09 AM 3.9340 100.1440 133° Southeast 463 533 37,000  Level FlightAware ADS-B
Wed 01:57:49 AM 3.8790 100.2040 133° Southeast 463 533 37,000  Level FlightAware ADS-B
Wed 01:58:33 AM 3.8300 100.2590 132° Southeast 463 533 37,000  Level FlightAware ADS-B
Wed 01:59:14 AM 3.7700 100.3240 133° Southeast 465 535 37,000  Level FlightAware ADS-B
Wed 01:59:54 AM 3.7100 100.3910 132° Southeast 465 535 37,000  Level FlightAware ADS-B
Wed 02:01:49 AM 3.5660 100.5510 123° Southeast 465 535 37,000  Level FlightAware ADS-B
Wed 02:02:00 AM 3.5746 100.5986 123° Southeast  Level Estimated
Wed 02:02:35 AM 3.4980 100.6250 133° Southeast 464 534 37,000  Level FlightAware ADS-B
Wed 02:03:12 AM 3.4530 100.6750 132° Southeast 464 534 37,000  Level FlightAware ADS-B
Wed 02:04:00 AM 3.3940 100.7400 132° Southeast 464 534 37,000  Level FlightAware ADS-B
Wed 02:04:36 AM 3.3500 100.7890 132° Southeast 464 534 37,000  Level FlightAware ADS-B
Wed 02:06:35 AM 3.2050 100.9510 132° Southeast 464 534 37,000  Level FlightAware ADS-B
Wed 02:07:11 AM 3.1610 101.0000 132° Southeast 464 534 37,000  Level FlightAware ADS-B
Wed 02:07:59 AM 3.1020 101.0650 132° Southeast 464 534 37,000  Level FlightAware ADS-B
Wed 02:08:33 AM 2.9780 101.1960 133° Southeast 467 537 37,000  Level FlightAware ADS-B
Wed 02:09:33 AM 2.8900 101.2920 133° Southeast 467 537 37,000  Level FlightAware ADS-B
Wed 02:10:14 AM 2.8290 101.3600 132° Southeast 466 536 37,000  Level FlightAware ADS-B
Wed 02:12:00 AM 2.7273 101.5419 119° Southeast  Level Estimated
Wed 02:12:15 AM 2.6860 101.5180 119° Southeast 465 535 37,000  Level FlightAware ADS-B
Wed 02:12:58 AM 2.5580 101.6580 132° Southeast 464 534 37,000  Level FlightAware ADS-B
Wed 02:13:40 AM 2.5100 101.7110 132° Southeast 463 533 37,000  Level FlightAware ADS-B
Wed 02:14:19 AM 2.4520 101.7740 133° Southeast 463 533 37,000  Level FlightAware ADS-B
Wed 02:15:14 AM 2.3960 101.8350 133° Southeast 458 527 37,000  Level FlightAware ADS-B
Wed 02:16:48 AM 2.2830 101.9610 132° Southeast 458 527 37,000  Level FlightAware ADS-B
Wed 02:17:25 AM 2.2380 102.0110 132° Southeast 458 527 37,000  Level FlightAware ADS-B
Wed 02:18:09 AM 2.1750 102.0800 132° Southeast 461 531 37,000  Level FlightAware ADS-B
Wed 02:18:18 AM 2.1200 102.1750 120° Southeast 455 524 37,000  Level FlightAware ADS-B
Wed 02:19:09 AM 2.0780 102.2560 117° Southeast 455 524 37,000  Level FlightAware ADS-B
Wed 02:19:45 AM 2.0490 102.3140 117° Southeast 455 524 37,000  Level FlightAware ADS-B
Wed 02:20:29 AM 2.0130 102.3840 117° Southeast 455 524 37,000  Level FlightAware ADS-B
Wed 02:21:09 AM 1.9810 102.4480 117° Southeast 455 524 37,000  Level FlightAware ADS-B
Wed 02:21:46 AM 1.9510 102.5070 117° Southeast 455 524 37,000  Level FlightAware ADS-B
Wed 02:22:35 AM 1.9110 102.5850 117° Southeast 455 524 37,000  Level FlightAware ADS-B
Wed 02:23:13 AM 1.8800 102.6460 117° Southeast 455 524 37,000  Level FlightAware ADS-B
Wed 02:24:01 AM 1.8410 102.7220 117° Southeast 455 524 37,000 -6,533 Level FlightAware ADS-B
Wed 02:24:43 AM 1.7330 102.8990 121° Southeast 448 516 27,200 -5,404 Descending FlightAware ADS-B
Wed 02:26:22 AM 1.6530 103.0480 118° Southeast 439 505 24,300 -1,773 Descending FlightAware ADS-B
Wed 02:26:55 AM 1.5990 103.1300 123° Southeast 421 484 23,300 -1,233 Descending FlightAware ADS-B
Wed 02:27:35 AM 1.5370 103.1710 147° Southeast 399 459 22,800 -675 Descending FlightAware ADS-B
Wed 02:28:15 AM 1.4760 103.2120 146° Southeast 376 433 22,400 -571 Descending FlightAware ADS-B
Wed 02:28:59 AM 1.4130 103.2530 147° Southeast 351 404 22,000 -825 Descending FlightAware ADS-B
Wed 02:29:35 AM 1.3670 103.2840 146° Southeast 346 398 21,300 -677 Descending FlightAware ADS-B
Wed 02:30:01 AM 1.3370 103.3040 146° Southeast 346 398 21,300  Level FlightAware ADS-B
Wed 02:31:14 AM 1.2550 103.3590 146° Southeast 346 398 21,300  Level FlightAware ADS-B
Wed 02:32:00 AM 1.2030 103.3940 146° Southeast 346 398 21,300  Level FlightAware ADS-B
Wed 02:32:48 AM 1.1490 103.4310 146° Southeast 346 398 21,300  Level FlightAware ADS-B
Wed 02:33:22 AM 1.1110 103.4570 146° Southeast 346 398 21,300 -1,413 Level FlightAware ADS-B
Wed 02:36:00 AM 1.2411 103.7389 65° Northeast  Level Estimated
Wed 02:36:50 AM 1.0720 103.7300 65° Northeast 292 336 15,600  Level FlightAware ADS-B
Wed 02:37:33 AM 1.0820 103.8060 83° East 291 335 14,900 -795 Descending FlightAware ADS-B
Wed 02:38:13 AM 1.0890 103.8590 82° East 289 333 14,500 -659 Descending FlightAware ADS-B
Wed 02:38:55 AM 1.0980 103.9150 81° East 294 338 14,000 -706 Descending FlightAware ADS-B
Wed 02:39:38 AM 1.1080 103.9730 80° East 296 341 13,500 -867 Descending FlightAware ADS-B
Wed 02:40:18 AM 1.1180 104.0270 80° East 296 341 12,800 -1,000 Descending FlightAware ADS-B
Wed 02:41:02 AM 1.1280 104.0860 80° East 298 343 12,100 -1,083 Descending FlightAware ADS-B
Wed 02:41:30 AM 1.1380 104.1240 75° East 297 342 11,500 -1,200 Descending FlightAware ADS-B
Wed 02:41:42 AM 1.1470 104.1350 51° Northeast 287 330 11,300 -1,286 Descending FlightAware ADS-B
Wed 02:41:58 AM 1.1660 104.1450 28° Northeast 276 318 10,900 -1,158 Descending FlightAware ADS-B
Wed 02:42:39 AM 1.2150 104.1650 22° Northeast 277 319 10,200 -1,114 Descending FlightAware ADS-B
Wed 02:43:08 AM 1.2500 104.1810 25° Northeast 276 318 9,600 -1,158 Descending FlightAware ADS-B
Wed 02:43:36 AM 1.2840 104.1950 22° Northeast 276 318 9,100 -1,071 Descending FlightAware ADS-B
Wed 02:44:04 AM 1.3170 104.2090 23° Northeast 276 318 8,600 -1,091 Descending FlightAware ADS-B
Wed 02:44:20 AM 1.3340 104.2160 22° Northeast 275 316 8,300 -409 Descending FlightAware ADS-B
Wed 02:44:48 AM 1.3680 104.2300 22° Northeast 271 312 8,300  Level FlightAware ADS-B
Wed 02:45:14 AM 1.3980 104.2430 23° Northeast 269 310 8,300  Level FlightAware ADS-B
Wed 02:45:29 AM 1.4150 104.2500 22° Northeast 270 311 8,300 -62 Level FlightAware ADS-B
Wed 02:46:51 AM 1.5040 104.2870 23° Northeast 238 274 8,200 -122 Descending FlightAware ADS-B
Wed 02:47:07 AM 1.5200 104.2890 North 228 262 8,100 -545 Descending FlightAware ADS-B
Wed 02:47:35 AM 1.5500 104.2900 North 223 257 7,800 -873 Descending FlightAware ADS-B
Wed 02:48:02 AM 1.5770 104.2900 360° North 222 255 7,300 -1,091 Descending FlightAware ADS-B
Wed 02:48:30 AM 1.6060 104.2900 360° North 220 253 6,800 -1,171 Descending FlightAware ADS-B
Wed 02:48:43 AM 1.6200 104.2900 360° North 220 253 6,500 -973 Descending FlightAware ADS-B
Wed 02:49:07 AM 1.6450 104.2900 360° North 220 253 6,200 -583 Descending FlightAware ADS-B
Wed 02:49:55 AM 1.6930 104.2910 North 216 249 5,800 -474 Descending FlightAware ADS-B
Wed 02:50:23 AM 1.7210 104.2910 360° North 218 251 5,600 -207 Descending FlightAware ADS-B
Wed 02:50:53 AM 1.7480 104.2920 North 217 250 5,600 -600 Level FlightAware ADS-B
Wed 02:51:03 AM 1.7470 104.2720 267° West 176 203 5,200 -947 Descending FlightAware ADS-B
Wed 02:51:31 AM 1.7420 104.2500 257° West 176 203 5,000 -409 Descending FlightAware ADS-B
Wed 02:51:47 AM 1.7330 104.2400 228° Southwest 187 215 4,900 -400 Descending FlightAware ADS-B
Wed 02:52:16 AM 1.7160 104.2220 227° Southwest 188 216 4,700 -556 Descending FlightAware ADS-B
Wed 02:52:41 AM 1.7000 104.2060 225° Southwest 185 213 4,400 -612 Descending FlightAware ADS-B
Wed 02:53:05 AM 1.6860 104.1920 225° Southwest 181 208 4,200 -429 Descending FlightAware ADS-B
Wed 02:53:37 AM 1.6670 104.1730 225° Southwest 182 209 4,000 -500 Descending FlightAware ADS-B
Wed 02:54:05 AM 1.6500 104.1550 227° Southwest 186 214 3,700 -414 Descending FlightAware ADS-B
Wed 02:54:35 AM 1.6320 104.1360 227° Southwest 188 216 3,600 -327 Descending FlightAware ADS-B
Wed 02:55:00 AM 1.6180 104.1210 227° Southwest 186 214 3,400 -277 Descending FlightAware ADS-B
Wed 02:55:40 AM 1.5960 104.0980 226° Southwest 184 212 3,300 -71 Descending FlightAware ADS-B
Wed 02:56:24 AM 1.5660 104.0700 223° Southwest 190 219 3,300  Level FlightAware ADS-B
Wed 02:56:53 AM 1.5420 104.0590 205° Southwest 199 229 3,300 -102 Level FlightAware ADS-B
Wed 02:57:23 AM 1.5170 104.0490 202° Southwest 182 209 3,200 -517 Descending FlightAware ADS-B
Wed 02:57:51 AM 1.4960 104.0390 205° Southwest 175 201 2,800 -964 Descending FlightAware ADS-B
Wed 02:58:19 AM 1.4750 104.0310 201° Southwest 170 196 2,300 -964 Descending FlightAware ADS-B
Wed 02:58:47 AM 1.4550 104.0220 204° Southwest 166 191 1,900 -857 Descending FlightAware ADS-B
Wed 02:59:15 AM 1.4360 104.0140 203° Southwest 149 171 1,500 -750 Descending FlightAware ADS-B
Wed 02:59:43 AM 1.4190 104.0070 202° Southwest 143 165 1,200 -615 Descending FlightAware ADS-B
Wed 02:59:54 AM 1.4120 104.0040 203° Southwest 140 161 1,100 -732 Descending FlightAware ADS-B
Wed 03:00:24 AM 1.3940 103.9960 204° Southwest 140 161 700 -828 Descending FlightAware ADS-B
Wed 03:00:52 AM 1.3760 103.9890 201° Southwest 147 169 300 -414 Descending FlightAware ADS-B
Wed 03:01:22 AM 1.3610 103.9820 205° Southwest 147 169 300  Level FlightAware ADS-B
Wed 03:03:00 AM 1.3557 103.9875 134° Southeast  Level Estimated
Wed 03:04:00 AM 1.3557 103.9875 214° Southwest  Level Estimated
Wed 03:05:00 AM 1.3557 103.9875 214° Southwest  Level Estimated

Login

Don't have an account? Register now (free) for customized features, flight alerts, and more!